Overview Statistics Trail Chart Weather Telemetry Raw packets
 

This is the latest recevied weather packets stored in our database for station/object WX4SGA. If no packets are shown the sender has not sent any weather packets the latest 10 day(s).

<< 10 11 12 13 14 15 16 >>
Time Temp. Humidity Pressure Rain* Wind** Luminosity Snow
1788544874 32.22° C 69% 1015.6 hPa 0 mm - 871 W/m² -
1788544573 30.56° C 75% 1015.6 hPa 0 mm - 907 W/m² -
1788544272 30.56° C 75% 1015.6 hPa 0 mm - 155 W/m² -
1788543966 30.56° C 74% 1015.9 hPa 0 mm - 149 W/m² -
1788543663 30.56° C 76% 1015.9 hPa 0 mm - 289 W/m² -
1788543363 30.56° C 74% 1015.9 hPa 0 mm - 210 W/m² -
1788543059 30° C 75% 1016.3 hPa 0 mm - 283 W/m² -
1788542754 30° C 75% 1016.3 hPa 0 mm - 144 W/m² -
1788542454 31.11° C 75% 1016.3 hPa 0 mm - 116 W/m² -
1788542149 31.67° C 75% 1016.3 hPa 0 mm - 876 W/m² -
1788541845 31.67° C 75% 1016.6 hPa 0 mm - 862 W/m² -
1788541540 30.56° C 76% 1016.6 hPa 0 mm - 916 W/m² -
1788541236 30° C 79% 1016.6 hPa 0 mm - 928 W/m² -
1788540934 30.56° C 78% 1016.6 hPa 0 mm - 140 W/m² -
1788540629 31.11° C 74% 1016.9 hPa 0 mm - 133 W/m² -
1788540324 30.56° C 73% 1016.9 hPa 0 mm - 180 W/m² -
1788540020 31.11° C 75% 1016.9 hPa 0 mm - 230 W/m² -
1788539720 30.56° C 76% 1016.9 hPa 0 mm - 872 W/m² -
1788539415 30° C 79% 1016.9 hPa 0 mm - 251 W/m² -
1788539109 29.44° C 79% 1016.9 hPa 0 mm - 216 W/m² -
1788538805 29.44° C 81% 1016.9 hPa 0 mm - 166 W/m² -
1788538499 30° C 79% 1016.9 hPa 0 mm - 140 W/m² -
1788538195 30° C 80% 1016.9 hPa 0 mm - 853 W/m² -
1788537889 30° C 81% 1016.9 hPa 0 mm - 850 W/m² -
1788537584 29.44° C 83% 1016.9 hPa 0 mm - 862 W/m² -

* Rain latest hour (hover to see other rain measurements)
** Current wind speed in m/s (hover to see current wind gust speed)